Time;durP1;ratioP1;P1;durP2;ratioP2;P2;SDS_P1;SDS_P2;PMS_P1;PMS_P2;Temp;Humidity;BMP_temperature;BMP_pressure;BME280_temperature;BME280_humidity;BME280_pressure;Samples;Min_cycle;Max_cycle;Signal;HPM_P1;HPM_P2
2022/08/19 00:01:54;;;;;;;68.55;64.78;;;;;;;26.01;45.97;101238.28;5080426;28;20033;-81
2022/08/19 00:04:24;;;;;;;70.88;66.90;;;;;;;25.99;46.21;101240.59;5074232;28;20350;-81
2022/08/19 00:06:50;;;;;;;71.53;67.53;;;;;;;25.97;45.96;101233.75;5068664;28;20434;-82
2022/08/19 00:09:18;;;;;;;73.65;69.35;;;;;;;25.95;46.36;101236.03;5063628;28;20028;-82
2022/08/19 00:11:44;;;;;;;68.07;63.97;;;;;;;25.92;45.92;101237.53;5065784;28;20036;-82
2022/08/19 00:14:13;;;;;;;71.38;67.18;;;;;;;25.90;46.20;101234.28;5055556;28;20028;-81
2022/08/19 00:16:39;;;;;;;;;;;;;;;25.88;46.00;101233.81;5059422;28;20033;-82
2022/08/19 00:19:05;;;;;;;69.93;65.45;;;;;;;25.85;45.61;101238.03;5060635;28;19951;-81
2022/08/19 00:21:31;;;;;;;67.07;63.17;;;;;;;25.83;45.74;101239.50;5059839;28;20035;-81
2022/08/19 00:23:58;;;;;;;69.35;65.22;;;;;;;25.82;46.12;101237.88;5063989;28;20070;-81
2022/08/19 00:26:27;;;;;;;74.57;69.78;;;;;;;25.80;46.28;101240.97;5074124;28;20085;-81
2022/08/19 00:28:53;;;;;;;66.75;62.85;;;;;;;25.78;46.16;101237.75;5071188;28;20049;-79
2022/08/19 00:31:18;;;;;;;67.82;63.67;;;;;;;25.74;45.94;101239.56;5063899;28;20032;-81
2022/08/19 00:33:44;;;;;;;69.15;64.57;;;;;;;25.73;45.87;101242.66;5063589;28;20035;-81
2022/08/19 00:36:10;;;;;;;69.97;65.28;;;;;;;25.72;46.04;101238.25;5081014;28;20032;-82
2022/08/19 00:38:37;;;;;;;67.95;63.70;;;;;;;25.70;46.07;101233.06;5077059;28;20025;-81
2022/08/19 00:41:03;;;;;;;71.65;67.38;;;;;;;25.67;46.52;101233.72;5071875;28;20091;-79
2022/08/19 00:43:28;;;;;;;70.00;65.70;;;;;;;25.65;46.36;101242.38;5080329;28;20040;-81
2022/08/19 00:45:54;;;;;;;69.78;65.50;;;;;;;25.64;46.08;101246.28;5056590;28;20068;-81
2022/08/19 00:48:21;;;;;;;69.38;65.13;;;;;;;25.62;46.14;101242.22;5085705;28;20512;-80
2022/08/19 00:50:48;;;;;;;69.85;65.43;;;;;;;25.60;46.08;101244.50;5075678;28;20036;-82
2022/08/19 00:53:17;;;;;;;70.60;66.25;;;;;;;25.58;46.46;101244.84;5049461;28;20041;-81
2022/08/19 00:55:46;;;;;;;67.40;63.30;;;;;;;25.56;46.20;101238.03;5059369;28;20087;-80
2022/08/19 00:58:15;;;;;;;69.20;65.05;;;;;;;25.54;46.45;101234.78;5058663;28;20031;-81
2022/08/19 01:00:40;;;;;;;72.97;68.55;;;;;;;25.53;45.94;101241.44;5066697;28;20033;-81
2022/08/19 01:03:13;;;;;;;68.30;64.10;;;;;;;25.50;46.18;101242.91;5086481;28;20041;-78
2022/08/19 01:05:41;;;;;;;68.47;64.20;;;;;;;25.48;45.97;101240.50;5077134;28;20020;-81
2022/08/19 01:08:08;;;;;;;71.38;66.78;;;;;;;25.46;46.40;101245.53;5070221;28;20035;-79
2022/08/19 01:10:40;;;;;;;67.72;63.35;;;;;;;25.44;46.27;101236.75;5075364;28;20081;-81
2022/08/19 01:13:06;;;;;;;70.53;66.03;;;;;;;25.42;46.31;101244.56;5073872;28;20045;-79
2022/08/19 01:15:44;;;;;;;72.60;68.07;;;;;;;25.39;46.42;101244.44;5051461;28;20033;-81
2022/08/19 01:18:14;;;;;;;70.97;66.53;;;;;;;25.37;46.32;101241.97;5050988;28;20191;-81
2022/08/19 01:20:42;;;;;;;71.55;67.05;;;;;;;25.36;46.37;101243.13;5070768;28;20134;-81
2022/08/19 01:23:08;;;;;;;68.35;63.72;;;;;;;25.33;46.20;101235.50;5076924;28;20488;-78
2022/08/19 01:25:47;;;;;;;73.90;69.43;;;;;;;25.31;46.09;101246.09;5072084;28;20039;-81
2022/08/19 01:28:21;;;;;;;68.00;63.75;;;;;;;25.30;46.41;101243.63;5058465;28;20028;-81
2022/08/19 01:30:47;;;;;;;65.80;61.78;;;;;;;25.28;46.17;101238.47;5071514;28;20126;-81
2022/08/19 01:33:13;;;;;;;69.53;65.20;;;;;;;25.26;46.37;101240.72;5078884;28;20551;-80
2022/08/19 01:35:40;;;;;;;68.07;63.35;;;;;;;25.25;46.41;101239.13;5082584;28;20387;-81
2022/08/19 01:38:09;;;;;;;69.20;64.78;;;;;;;25.23;46.17;101244.97;5085571;28;20039;-81
2022/08/19 01:40:38;;;;;;;67.07;62.83;;;;;;;25.21;46.50;101232.63;5082664;28;20090;-80
2022/08/19 01:43:03;;;;;;;70.57;66.07;;;;;;;25.18;46.02;101238.81;5072150;28;20036;-81
2022/08/19 01:45:31;;;;;;;70.47;66.07;;;;;;;25.17;46.60;101232.44;5074708;28;20059;-81
2022/08/19 01:47:58;;;;;;;70.75;66.15;;;;;;;25.14;46.16;101238.63;5086599;28;20028;-80
2022/08/19 01:50:23;;;;;;;69.53;65.35;;;;;;;25.13;46.24;101244.50;5102623;28;20056;-82
2022/08/19 01:52:49;;;;;;;65.50;61.53;;;;;;;25.11;46.15;101253.09;5086933;28;20029;-82
2022/08/19 01:55:18;;;;;;;67.90;63.72;;;;;;;25.10;46.59;101247.88;5085699;28;20036;-78
2022/08/19 01:57:50;;;;;;;67.75;63.20;;;;;;;25.07;46.36;101246.59;5084369;28;20036;-81
2022/08/19 02:00:17;;;;;;;69.15;64.85;;;;;;;25.05;46.32;101246.13;5058535;28;20036;-81
2022/08/19 02:02:43;;;;;;;69.40;65.00;;;;;;;25.03;46.05;101251.19;5093426;28;20477;-81
2022/08/19 02:05:09;;;;;;;63.33;59.45;;;;;;;25.01;46.36;101254.25;5080732;28;20274;-82
2022/08/19 02:07:36;;;;;;;67.50;63.20;;;;;;;24.99;46.10;101252.97;5059623;28;20455;-82
2022/08/19 02:10:08;;;;;;;63.58;59.60;;;;;;;24.97;46.34;101258.00;5080936;28;20032;-83
2022/08/19 02:12:33;;;;;;;66.82;62.80;;;;;;;24.95;46.33;101261.09;5082699;28;20048;-82
2022/08/19 02:15:00;;;;;;;67.55;63.25;;;;;;;24.93;46.34;101265.34;5071555;28;20059;-81
2022/08/19 02:17:26;;;;;;;67.50;63.20;;;;;;;24.91;45.94;101265.66;5088933;28;20492;-82
2022/08/19 02:19:51;;;;;;;68.50;64.30;;;;;;;24.90;46.30;101269.56;5074368;28;20040;-82
2022/08/19 02:22:17;;;;;;;65.82;61.15;;;;;;;24.89;46.19;101272.66;5089698;28;20090;-82
2022/08/19 02:24:42;;;;;;;67.20;63.22;;;;;;;24.86;46.16;101267.78;5098859;28;20104;-82
2022/08/19 02:27:07;;;;;;;70.00;65.43;;;;;;;24.83;46.48;101264.53;5072352;28;20036;-81
2022/08/19 02:29:33;;;;;;;68.18;63.70;;;;;;;24.81;46.38;101258.50;5053919;28;20056;-80
2022/08/19 02:31:58;;;;;;;70.22;65.82;;;;;;;24.81;46.11;101257.69;5073240;28;20020;-80
2022/08/19 02:34:24;;;;;;;69.40;64.60;;;;;;;24.79;46.07;101257.22;5073903;28;20036;-81
2022/08/19 02:36:51;;;;;;;65.00;61.00;;;;;;;24.76;46.49;101258.69;5055179;28;20024;-81
2022/08/19 02:39:16;;;;;;;68.07;63.22;;;;;;;24.74;46.16;101257.38;5086470;28;20059;-79
2022/08/19 02:41:42;;;;;;;64.80;60.60;;;;;;;24.73;46.64;101264.06;5085034;28;20117;-81
2022/08/19 02:44:07;;;;;;;70.55;65.95;;;;;;;24.72;46.12;101259.66;5056744;28;20036;-82
2022/08/19 02:46:33;;;;;;;68.03;63.40;;;;;;;24.69;46.47;101260.31;5074598;28;20040;-81
2022/08/19 02:49:02;;;;;;;68.72;64.40;;;;;;;24.68;46.43;101261.47;5056663;28;20048;-82
2022/08/19 02:51:34;;;;;;;65.85;61.55;;;;;;;24.66;46.57;101264.53;5084555;28;20386;-81
2022/08/19 02:54:00;;;;;;;64.63;60.63;;;;;;;24.64;46.58;101263.25;5055341;28;20029;-81
2022/08/19 02:56:27;;;;;;;66.10;61.80;;;;;;;24.61;46.16;101257.22;5085684;28;20396;-81
2022/08/19 02:58:53;;;;;;;68.28;63.83;;;;;;;24.60;46.71;101272.19;5052335;28;20049;-82
2022/08/19 03:01:24;;;;;;;68.38;64.05;;;;;;;24.57;46.36;101259.03;5062182;28;20032;-79
2022/08/19 03:03:50;;;;;;;64.60;60.17;;;;;;;24.57;46.70;101252.69;5066661;28;20033;-82
2022/08/19 03:06:16;;;;;;;68.10;63.53;;;;;;;24.55;46.88;101243.91;5048370;28;20032;-79
2022/08/19 03:08:44;;;;;;;65.85;61.47;;;;;;;24.53;46.54;101255.28;5078934;28;20036;-82
2022/08/19 03:11:22;;;;;;;65.33;61.23;;;;;;;24.52;46.40;101256.44;5082365;28;20464;-82
2022/08/19 03:13:51;;;;;;;68.00;63.72;;;;;;;24.50;46.25;101249.59;5081406;28;20085;-80
2022/08/19 03:16:22;;;;;;;70.13;65.40;;;;;;;24.48;46.71;101243.59;5076298;28;20032;-77
2022/08/19 03:18:48;;;;;;;68.50;63.83;;;;;;;24.47;46.46;101247.47;5072695;28;20024;-82
2022/08/19 03:21:19;;;;;;;68.43;63.95;;;;;;;24.44;46.75;101257.19;5071147;28;20373;-82
2022/08/19 03:23:45;;;;;;;67.93;63.38;;;;;;;24.43;46.86;101263.06;5079120;28;20040;-83
2022/08/19 03:26:10;;;;;;;70.97;66.28;;;;;;;24.40;46.48;101268.06;5076016;28;20483;-81
2022/08/19 03:28:37;;;;;;;69.53;65.07;;;;;;;24.39;46.72;101260.94;5072931;28;20448;-84
2022/08/19 03:31:09;;;;;;;65.07;60.63;;;;;;;24.39;46.58;101257.34;5053758;28;20397;-81
2022/08/19 03:33:36;;;;;;;69.68;64.93;;;;;;;24.36;46.97;101255.25;5055567;28;20028;-82
2022/08/19 03:36:03;;;;;;;66.50;62.05;;;;;;;24.35;46.68;101248.09;5055094;28;20033;-81
2022/08/19 03:38:29;;;;;;;67.75;63.35;;;;;;;24.32;46.84;101255.09;5055593;28;20392;-81
2022/08/19 03:40:54;;;;;;;66.22;61.72;;;;;;;24.30;46.65;101257.34;5054406;28;20029;-81
2022/08/19 03:43:20;;;;;;;69.97;65.35;;;;;;;24.30;46.85;101259.31;5055599;28;20037;-77
2022/08/19 03:45:48;;;;;;;66.25;61.83;;;;;;;24.28;46.52;101256.84;5055580;28;20032;-82
2022/08/19 03:48:16;;;;;;;69.22;64.20;;;;;;;24.26;46.75;101256.38;5055485;28;20044;-81
2022/08/19 03:50:42;;;;;;;67.05;62.28;;;;;;;24.24;46.94;101247.63;5055180;28;20021;-81
2022/08/19 03:53:08;;;;;;;70.18;65.10;;;;;;;24.23;46.74;101247.94;5055067;28;20033;-81
2022/08/19 03:55:38;;;;;;;72.30;66.90;;;;;;;24.22;46.41;101240.75;5054539;28;20040;-82
2022/08/19 03:58:03;;;;;;;68.32;63.33;;;;;;;24.19;46.58;101240.28;5054861;28;20408;-83
2022/08/19 04:00:29;;;;;;;72.43;66.28;;;;;;;24.18;46.77;101246.13;5055604;28;20035;-80
2022/08/19 04:02:54;;;;;;;68.93;63.33;;;;;;;24.16;46.66;101238.16;5053807;28;20179;-82
2022/08/19 04:05:20;;;;;;;69.03;63.88;;;;;;;24.14;47.06;101243.22;5054093;28;20025;-75
2022/08/19 04:07:45;;;;;;;71.03;65.35;;;;;;;24.12;47.17;101245.47;5070567;28;20037;-82
2022/08/19 04:10:11;;;;;;;67.03;61.88;;;;;;;24.11;46.78;101243.03;5053427;28;20179;-80
2022/08/19 04:12:36;;;;;;;69.28;63.03;;;;;;;24.08;46.68;101247.25;5053632;28;20040;-82
2022/08/19 04:15:03;;;;;;;68.43;63.15;;;;;;;24.07;46.89;101247.59;5054790;28;20513;-81
2022/08/19 04:17:28;;;;;;;67.80;62.08;;;;;;;24.05;47.10;101247.91;5055000;28;20104;-80
2022/08/19 04:19:53;;;;;;;65.78;60.78;;;;;;;24.04;46.54;101240.75;5054519;28;20191;-81
2022/08/19 04:22:19;;;;;;;69.40;64.20;;;;;;;24.02;46.88;101240.28;5054656;28;20032;-81
2022/08/19 04:24:44;;;;;;;72.82;66.45;;;;;;;24.00;46.53;101241.72;5054558;28;20350;-80
2022/08/19 04:27:09;;;;;;;69.88;63.78;;;;;;;23.98;47.05;101242.03;5054425;28;20036;-83
2022/08/19 04:29:35;;;;;;;73.57;67.03;;;;;;;23.97;46.50;101243.19;5054481;28;20056;-82
2022/08/19 04:32:01;;;;;;;71.07;65.57;;;;;;;23.95;46.78;101240.72;5037410;28;20124;-79
2022/08/19 04:34:29;;;;;;;74.05;68.13;;;;;;;23.94;46.80;101238.31;5054455;28;20036;-80
2022/08/19 04:36:56;;;;;;;67.25;61.70;;;;;;;23.91;47.00;101233.41;5054593;28;20060;-80
2022/08/19 04:42:38;;;;;;;72.43;66.75;;;;;;;23.90;47.13;101240.88;5054423;28;20040;-80
2022/08/19 04:44:56;;;;;;;70.43;65.00;;;;;;;23.86;46.86;101233.56;5054193;28;20051;-80
2022/08/19 04:47:22;;;;;;;72.72;66.20;;;;;;;23.83;46.73;101246.06;5054518;28;20084;-80
2022/08/19 04:49:48;;;;;;;71.38;65.43;;;;;;;23.82;46.75;101249.94;5054377;28;20041;-82
2022/08/19 04:52:14;;;;;;;71.97;65.70;;;;;;;23.80;46.79;101248.66;5054303;28;20036;-79
2022/08/19 04:54:39;;;;;;;71.43;65.47;;;;;;;23.79;46.79;101249.75;5055043;28;20045;-81
2022/08/19 04:57:09;;;;;;;73.90;67.18;;;;;;;23.77;47.16;101255.63;5054427;28;20033;-80
2022/08/19 04:59:36;;;;;;;74.00;67.80;;;;;;;23.75;46.95;101258.69;5054032;28;20029;-81
2022/08/19 05:02:02;;;;;;;70.70;64.63;;;;;;;23.73;46.85;101255.44;5054282;28;20033;-83
2022/08/19 05:04:31;;;;;;;69.63;63.88;;;;;;;23.72;47.35;101262.09;5054771;28;20056;-76
2022/08/19 05:06:57;;;;;;;70.53;63.97;;;;;;;23.71;47.38;101267.88;5055065;28;20036;-81
2022/08/19 05:09:22;;;;;;;70.97;65.05;;;;;;;23.69;47.03;101270.16;5054533;28;20369;-83
2022/08/19 05:11:50;;;;;;;68.80;62.40;;;;;;;23.67;46.96;101267.72;5054327;28;20036;-82
2022/08/19 05:14:16;;;;;;;71.00;64.38;;;;;;;23.66;47.29;101271.63;5053808;28;20060;-81
2022/08/19 05:16:41;;;;;;;75.82;69.47;;;;;;;23.64;47.40;101276.63;5053853;28;20112;-82
2022/08/19 05:24:36;;;;;;;68.03;62.47;;;;;;;23.59;47.03;101287.00;5053975;28;20182;-82
2022/08/19 05:27:02;;;;;;;66.35;61.08;;;;;;;23.58;47.34;101288.09;5053552;28;20408;-77
2022/08/19 05:29:29;;;;;;;67.00;61.90;;;;;;;23.55;47.07;101284.03;5053973;28;20045;-76
2022/08/19 05:31:55;;;;;;;70.80;64.85;;;;;;;23.55;46.93;101281.28;5053216;28;20484;-82
2022/08/19 05:34:25;;;;;;;67.95;62.30;;;;;;;23.53;47.12;101283.53;5053624;28;20037;-82
2022/08/19 05:36:56;;;;;;;69.88;63.40;;;;;;;23.50;47.13;101276.72;5053495;28;20029;-83
2022/08/19 05:39:24;;;;;;;70.40;64.38;;;;;;;23.49;47.21;101285.31;5053490;28;20116;-81
2022/08/19 05:41:54;;;;;;;70.18;64.03;;;;;;;23.48;47.59;101280.94;5053691;28;20056;-83
2022/08/19 05:44:21;;;;;;;67.25;61.55;;;;;;;23.46;47.27;101275.75;5053943;28;20029;-81
2022/08/19 05:46:47;;;;;;;71.18;65.00;;;;;;;23.45;47.40;101282.38;5054121;28;20126;-81
2022/08/19 05:49:15;;;;;;;67.32;61.70;;;;;;;23.44;47.50;101274.44;5053395;28;20112;-82
2022/08/19 05:51:41;;;;;;;67.35;62.03;;;;;;;23.42;47.62;101271.97;5053227;28;20029;-82
2022/08/19 05:54:08;;;;;;;70.72;64.35;;;;;;;23.41;47.24;101278.63;5052125;28;20027;-83
2022/08/19 05:56:37;;;;;;;67.40;61.75;;;;;;;23.40;47.56;101273.44;5052336;28;20068;-81
2022/08/19 05:59:08;;;;;;;70.10;64.28;;;;;;;23.38;47.68;101270.16;5053393;28;20114;-81
2022/08/19 06:01:33;;;;;;;71.00;65.07;;;;;;;23.37;47.40;101274.88;5053512;28;20068;-82
2022/08/19 06:03:59;;;;;;;70.30;64.22;;;;;;;23.36;47.60;101286.22;5051956;28;20037;-82
2022/08/19 06:06:24;;;;;;;71.80;65.50;;;;;;;23.35;47.86;101290.09;5053373;28;20060;-83
2022/08/19 06:08:50;;;;;;;69.07;63.17;;;;;;;23.34;47.76;101292.06;5035486;28;20033;-82
2022/08/19 06:11:21;;;;;;;68.32;62.13;;;;;;;23.33;48.18;101295.91;5052762;28;20056;-83
2022/08/19 06:13:50;;;;;;;70.30;64.30;;;;;;;23.31;47.92;101293.50;5053141;28;20074;-82
2022/08/19 06:16:20;;;;;;;70.75;65.05;;;;;;;23.29;48.20;101290.25;5053040;28;20036;-82
2022/08/19 06:18:46;;;;;;;71.95;66.28;;;;;;;23.28;48.34;101283.13;5053421;28;20079;-83
2022/08/19 06:21:11;;;;;;;68.57;62.78;;;;;;;23.28;48.18;101285.88;5052087;28;20044;-82
2022/08/19 06:23:37;;;;;;;71.88;65.88;;;;;;;23.27;48.31;101278.72;5053173;28;20031;-81
2022/08/19 06:26:02;;;;;;;73.00;64.60;;;;;;;23.26;47.96;101279.03;5052131;28;20037;-81
2022/08/19 06:28:27;;;;;;;71.25;64.60;;;;;;;23.25;48.04;101283.72;5053108;28;20036;-81
2022/08/19 06:30:53;;;;;;;66.32;61.22;;;;;;;23.25;48.22;101280.97;5054359;28;20132;-81
2022/08/19 06:33:18;;;;;;;68.22;62.80;;;;;;;23.23;48.64;101297.00;5052542;28;20531;-82
2022/08/19 06:35:43;;;;;;;66.50;61.03;;;;;;;23.23;48.58;101288.72;5053634;28;20037;-81
2022/08/19 06:38:09;;;;;;;66.88;61.20;;;;;;;23.23;48.61;101285.16;5053837;28;20048;-82
2022/08/19 06:40:36;;;;;;;65.38;60.05;;;;;;;23.22;48.63;101289.06;5054653;28;20033;-76
2022/08/19 06:43:02;;;;;;;63.90;58.75;;;;;;;23.22;48.85;101281.59;5053430;28;20032;-80
2022/08/19 06:45:28;;;;;;;69.10;63.70;;;;;;;23.21;48.38;101282.75;5053125;28;20426;-82
2022/08/19 06:47:56;;;;;;;67.57;62.17;;;;;;;23.22;48.26;101291.81;5053491;28;20029;-81
2022/08/19 06:50:23;;;;;;;66.47;60.28;;;;;;;23.22;48.60;101289.06;5055321;28;20032;-82
2022/08/19 06:52:48;;;;;;;63.15;58.22;;;;;;;23.21;48.40;101292.94;5056790;28;20484;-84
2022/08/19 06:55:15;;;;;;;70.43;64.60;;;;;;;23.20;48.85;101297.63;5056568;28;20086;-84
2022/08/19 06:57:42;;;;;;;68.75;63.72;;;;;;;23.20;48.53;101291.31;5056975;28;20036;-82
2022/08/19 07:00:11;;;;;;;68.47;62.92;;;;;;;23.21;48.89;101292.94;5056629;28;20036;-83
2022/08/19 07:02:37;;;;;;;63.97;58.35;;;;;;;23.20;48.65;101294.06;5056345;28;20483;-76
2022/08/19 07:05:03;;;;;;;61.83;56.97;;;;;;;23.21;48.85;101304.78;5056374;28;20060;-82
2022/08/19 07:07:28;;;;;;;63.38;57.78;;;;;;;23.21;49.17;101299.28;5054992;28;20534;-83
2022/08/19 07:09:54;;;;;;;62.60;57.63;;;;;;;23.21;49.11;101303.94;5054982;28;20037;-85
2022/08/19 07:12:19;;;;;;;63.55;58.22;;;;;;;23.22;49.08;101300.09;5056552;28;20041;-80
2022/08/19 07:14:48;;;;;;;64.03;59.10;;;;;;;23.22;48.95;101309.16;5055651;28;20048;-83
2022/08/19 07:17:14;;;;;;;63.08;58.25;;;;;;;23.22;49.25;101305.59;5056441;28;20037;-83
2022/08/19 07:19:40;;;;;;;61.03;56.33;;;;;;;23.22;49.32;101305.59;5055825;28;20040;-78
2022/08/19 07:22:07;;;;;;;64.88;59.25;;;;;;;23.22;49.32;101303.66;5056512;28;20459;-84
2022/08/19 07:24:33;;;;;;;67.40;61.53;;;;;;;23.23;49.44;101308.03;5055790;28;20033;-82
2022/08/19 07:27:01;;;;;;;64.43;58.67;;;;;;;23.23;49.72;101307.22;5055851;28;20040;-82
2022/08/19 07:29:28;;;;;;;64.83;58.83;;;;;;;23.23;49.21;101307.22;5055873;28;20049;-82
2022/08/19 07:31:56;;;;;;;65.35;60.30;;;;;;;23.24;49.63;101308.84;5055531;28;20283;-81
2022/08/19 07:34:22;;;;;;;68.55;63.17;;;;;;;23.23;49.16;101308.03;5055831;28;20032;-84
2022/08/19 07:36:49;;;;;;;66.93;60.53;;;;;;;23.23;49.69;101310.78;5055832;28;20036;-83
2022/08/19 07:39:18;;;;;;;66.65;60.30;;;;;;;23.24;49.85;101306.91;5055920;28;20066;-83
2022/08/19 07:41:44;;;;;;;66.40;60.97;;;;;;;23.24;50.04;101309.66;5055701;28;20032;-84
2022/08/19 07:44:12;;;;;;;64.95;59.67;;;;;;;23.24;49.90;101304.16;5055738;28;20071;-84
2022/08/19 07:46:49;;;;;;;65.30;59.97;;;;;;;23.24;50.03;101306.91;5056273;28;20040;-83
2022/08/19 07:49:19;;;;;;;65.20;60.10;;;;;;;23.24;49.85;101308.84;5056154;28;20103;-84
2022/08/19 07:51:54;;;;;;;66.95;61.45;;;;;;;23.25;49.79;101308.53;5054185;28;20071;-84
2022/08/19 07:54:21;;;;;;;64.80;59.30;;;;;;;23.24;49.47;101315.19;5055111;28;20086;-82
2022/08/19 07:56:46;;;;;;;69.10;62.83;;;;;;;23.24;49.88;101323.44;5053803;28;20432;-74
2022/08/19 07:59:12;;;;;;;68.20;61.60;;;;;;;23.24;50.11;101334.47;5054891;28;20025;-77
2022/08/19 08:01:39;;;;;;;67.60;61.78;;;;;;;23.24;49.80;101326.19;5054425;28;20043;-79
2022/08/19 08:09:37;;;;;;;68.00;61.20;;;;;;;23.28;51.60;101323.63;5055243;28;20448;-78
2022/08/19 08:12:09;;;;;;;;;;;;;;;23.28;51.80;101331.88;5055184;28;20109;-73
2022/08/19 08:14:46;;;;;;;72.00;64.95;;;;;;;23.28;52.17;101334.66;5087084;28;19967;-73
2022/08/19 08:17:12;;;;;;;69.47;62.78;;;;;;;23.27;51.94;101335.78;5054990;28;20052;-73
2022/08/19 08:19:40;;;;;;;70.70;64.20;;;;;;;23.27;52.51;101341.28;5054780;28;20039;-74
2022/08/19 08:22:07;;;;;;;68.55;62.28;;;;;;;23.26;52.71;101342.44;5054899;28;20056;-75
2022/08/19 08:24:35;;;;;;;73.45;66.82;;;;;;;23.25;52.89;101341.59;5054720;28;20091;-74
2022/08/19 08:27:03;;;;;;;65.68;59.72;;;;;;;23.24;52.75;101348.25;5054276;28;20067;-73
2022/08/19 08:29:30;;;;;;;69.00;62.65;;;;;;;23.24;53.14;101348.25;5052991;28;20076;-75
2022/08/19 08:31:56;;;;;;;71.32;65.18;;;;;;;23.25;53.41;101349.88;5054609;28;20071;-74
2022/08/19 08:34:22;;;;;;;71.47;65.18;;;;;;;23.26;53.22;101350.72;5070240;28;20057;-75
2022/08/19 08:36:47;;;;;;;68.85;62.58;;;;;;;23.27;53.22;101352.31;5036580;28;20492;-74
2022/08/19 08:39:15;;;;;;;70.90;64.35;;;;;;;23.28;53.00;101354.78;5055773;28;20040;-88
2022/08/19 08:42:07;;;;;;;73.75;66.75;;;;;;;23.28;53.07;101354.78;5055169;28;20033;-84
2022/08/19 08:44:36;;;;;;;65.75;60.33;;;;;;;23.29;52.79;101353.63;5053562;28;20074;-81
2022/08/19 08:47:02;;;;;;;;;;;;;;;23.30;52.72;101359.97;5053637;28;20064;-81
2022/08/19 08:49:39;;;;;;;74.90;67.93;;;;;;;23.29;52.74;101361.09;5054313;28;19991;-81
2022/08/19 08:52:13;;;;;;;72.95;65.65;;;;;;;23.30;52.82;101360.75;5054157;28;20079;-71
2022/08/19 08:54:46;;;;;;;71.22;64.90;;;;;;;23.32;52.46;101366.78;5054626;28;20024;-70
2022/08/19 08:57:17;;;;;;;71.80;65.18;;;;;;;23.32;52.45;101366.78;5054040;28;20021;-73
2022/08/19 08:59:46;;;;;;;69.43;63.97;;;;;;;23.33;52.37;101371.19;5054022;28;20060;-75
2022/08/19 09:02:11;;;;;;;70.13;64.32;;;;;;;23.33;52.33;101365.69;5053864;28;20481;-72
2022/08/19 09:04:38;;;;;;;71.10;64.18;;;;;;;23.35;52.77;101372.81;5054059;28;20040;-74
2022/08/19 09:07:39;;;;;;;72.70;66.15;;;;;;;23.36;52.63;101369.75;5053771;28;20075;-72
2022/08/19 09:10:29;;;;;;;71.80;65.22;;;;;;;23.37;52.55;101365.84;5024858;28;20511;-72
2022/08/19 09:13:03;;;;;;;75.28;68.32;;;;;;;23.37;52.61;101365.84;5053572;28;20201;-74
2022/08/19 09:15:34;;;;;;;78.78;71.35;;;;;;;23.38;52.76;101364.72;5053833;28;20029;-72
2022/08/19 09:18:01;;;;;;;71.85;64.93;;;;;;;23.39;52.67;101371.06;5054550;28;20039;-73
2022/08/19 09:20:27;;;;;;;71.72;65.15;;;;;;;23.40;52.46;101375.44;5053652;28;20043;-72
2022/08/19 09:22:53;;;;;;;74.22;67.30;;;;;;;23.41;52.50;101374.28;5053049;28;20029;-72
2022/08/19 09:25:23;;;;;;;71.35;64.80;;;;;;;23.41;52.81;101372.38;5053419;28;20522;-72
2022/08/19 09:27:51;;;;;;;71.55;65.38;;;;;;;23.42;52.60;101378.69;5053842;28;20075;-72
2022/08/19 09:30:21;;;;;;;74.47;67.28;;;;;;;23.42;52.64;101376.75;5053606;28;20413;-73
2022/08/19 09:32:47;;;;;;;74.00;66.85;;;;;;;23.43;52.70;101377.56;5054011;28;20029;-74
2022/08/19 09:35:15;;;;;;;71.93;65.57;;;;;;;23.43;52.77;101375.59;5053437;28;20049;-73
2022/08/19 09:37:42;;;;;;;71.50;64.45;;;;;;;23.44;52.53;101380.00;5053112;28;20078;-72
2022/08/19 09:40:08;;;;;;;72.32;65.97;;;;;;;23.45;52.67;101380.81;5053390;28;20473;-73
2022/08/19 09:42:33;;;;;;;69.45;62.90;;;;;;;23.45;52.24;101381.63;5053701;28;20089;-73
2022/08/19 09:44:59;;;;;;;70.57;63.92;;;;;;;23.47;52.81;101382.13;5052159;28;20071;-73
2022/08/19 09:47:25;;;;;;;66.43;60.75;;;;;;;23.48;52.64;101380.19;5053343;28;20037;-74
2022/08/19 09:49:50;;;;;;;75.18;68.95;;;;;;;23.47;52.35;101382.13;5052985;28;20055;-74
2022/08/19 09:52:16;;;;;;;74.28;67.78;;;;;;;23.49;52.38;101376.31;5053168;28;20025;-72
2022/08/19 09:54:41;;;;;;;69.70;63.38;;;;;;;23.49;52.53;101385.41;5052167;28;20533;-72
2022/08/19 09:57:06;;;;;;;71.50;65.28;;;;;;;23.49;52.38;101377.13;5053204;28;20040;-73
2022/08/19 09:59:32;;;;;;;63.50;58.08;;;;;;;23.51;52.50;101382.31;5053722;28;20377;-72
2022/08/19 10:01:57;;;;;;;70.53;64.00;;;;;;;23.51;52.14;101385.06;5053170;28;20064;-72
2022/08/19 10:05:47;;;;;;;70.53;64.22;;;;;;;23.51;52.43;101382.31;5053299;28;20059;-73
2022/08/19 10:07:08;;;;;;;71.63;65.05;;;;;;;23.52;52.40;101386.72;5052782;28;20103;-72
2022/08/19 10:09:33;;;;;;;69.53;63.42;;;;;;;23.53;52.72;101383.63;5035273;28;20029;-73
2022/08/19 10:12:00;;;;;;;67.53;61.50;;;;;;;23.53;52.19;101386.38;5052975;28;20166;-72
2022/08/19 10:14:27;;;;;;;66.10;60.65;;;;;;;23.55;52.18;101391.59;5053089;28;20029;-72
2022/08/19 10:16:52;;;;;;;64.85;59.35;;;;;;;23.55;52.68;101386.88;5051810;28;20380;-74
2022/08/19 10:19:20;;;;;;;66.70;61.42;;;;;;;23.57;52.39;101392.09;5053285;28;20496;-72
2022/08/19 10:21:45;;;;;;;65.07;59.47;;;;;;;23.58;52.49;101384.63;5053006;28;20124;-72
2022/08/19 10:24:10;;;;;;;67.70;62.42;;;;;;;23.58;52.37;101379.13;5054644;28;20111;-73
2022/08/19 10:26:41;;;;;;;66.95;61.17;;;;;;;23.60;52.73;101385.13;5057461;28;20098;-73
2022/08/19 10:29:06;;;;;;;67.88;62.33;;;;;;;23.61;52.60;101372.97;5056776;28;20527;-73
2022/08/19 10:31:33;;;;;;;64.75;59.45;;;;;;;23.60;52.21;101369.41;5056712;28;20045;-73
2022/08/19 10:34:00;;;;;;;68.57;62.53;;;;;;;23.61;52.49;101376.56;5055634;28;20033;-72
2022/08/19 10:36:28;;;;;;;70.75;64.50;;;;;;;23.62;52.80;101372.66;5056769;28;20036;-72
2022/08/19 10:38:58;;;;;;;73.43;66.55;;;;;;;23.63;52.85;101371.50;5056307;28;20106;-77
2022/08/19 10:41:27;;;;;;;68.75;62.80;;;;;;;23.64;52.63;101369.59;5056843;28;20033;-73
2022/08/19 10:43:58;;;;;;;68.43;62.45;;;;;;;23.65;52.64;101372.03;5056620;28;20029;-73
2022/08/19 10:46:25;;;;;;;67.15;61.42;;;;;;;23.66;52.37;101375.59;5057407;28;20029;-73
2022/08/19 10:48:51;;;;;;;70.72;65.07;;;;;;;23.67;52.68;101372.53;5056489;28;20032;-72
2022/08/19 10:54:01;;;;;;;71.68;65.43;;;;;;;23.70;52.70;101371.88;5056979;28;20060;-73
2022/08/19 10:59:13;;;;;;;71.80;65.03;;;;;;;23.72;52.38;101364.16;5056459;28;20040;-74
2022/08/19 11:01:40;;;;;;;71.88;65.15;;;;;;;23.73;52.27;101363.00;5054662;28;20115;-76
2022/08/19 11:04:09;;;;;;;72.13;66.05;;;;;;;23.74;51.69;101367.41;5055118;28;20075;-73
2022/08/19 11:06:36;;;;;;;75.90;69.07;;;;;;;23.79;52.14;101357.34;5055791;28;20037;-73
2022/08/19 11:09:02;;;;;;;72.68;66.38;;;;;;;23.80;52.27;101357.03;5056082;28;20465;-73
2022/08/19 11:11:28;;;;;;;77.55;71.03;;;;;;;23.84;52.45;101359.97;5056111;28;20465;-74
2022/08/19 11:13:54;;;;;;;71.93;65.82;;;;;;;23.86;52.68;101349.44;5056044;28;20025;-74
2022/08/19 11:16:24;;;;;;;69.82;63.95;;;;;;;23.89;53.23;101351.53;5055713;28;20029;-74
2022/08/19 11:18:53;;;;;;;70.57;64.80;;;;;;;23.91;52.73;101360.31;5054677;28;20048;-74
2022/08/19 11:21:30;;;;;;;64.05;59.00;;;;;;;23.93;52.64;101347.03;5054829;28;20462;-73
2022/08/19 11:23:57;;;;;;;68.50;63.13;;;;;;;23.96;52.21;101346.38;5056068;28;20082;-73
2022/08/19 11:26:24;;;;;;;68.55;62.72;;;;;;;23.97;52.34;101351.59;5055760;28;20104;-75
2022/08/19 11:28:54;;;;;;;67.65;61.90;;;;;;;24.00;52.37;101344.63;5055933;28;20072;-74
2022/08/19 11:31:23;;;;;;;69.43;63.78;;;;;;;24.03;52.84;101349.50;5055601;28;20068;-73